createdAt,value
2019-06-10T00:01:28.476Z,2.03
2019-06-10T00:03:31.930Z,1.70
2019-06-10T00:05:34.280Z,1.40
2019-06-10T00:07:37.165Z,1.87
2019-06-10T00:09:42.369Z,2.03
2019-06-10T00:11:45.272Z,2.07
2019-06-10T00:13:50.375Z,1.60
2019-06-10T00:15:52.661Z,2.10
2019-06-10T00:18:16.200Z,1.70
2019-06-10T00:19:59.278Z,1.73
2019-06-10T00:22:02.503Z,1.80
2019-06-10T00:24:05.683Z,1.70
2019-06-10T00:26:09.258Z,1.87
2019-06-10T00:28:12.234Z,2.03
2019-06-10T00:30:14.559Z,2.00
2019-06-10T00:32:17.472Z,1.50
2019-06-10T00:34:20.852Z,1.40
2019-06-10T00:36:23.358Z,1.77
2019-06-10T00:38:26.994Z,1.23
2019-06-10T00:40:31.695Z,1.50
2019-06-10T00:42:32.784Z,2.00
2019-06-10T00:44:35.679Z,1.70
2019-06-10T00:46:40.748Z,1.60
2019-06-10T00:48:42.211Z,2.30
2019-06-10T00:50:45.112Z,1.67
2019-06-10T00:52:47.992Z,1.43
2019-06-10T00:54:51.875Z,1.20
2019-06-10T00:56:53.872Z,1.83
2019-06-10T00:59:00.577Z,1.87
2019-06-10T01:01:02.690Z,1.93
2019-06-10T01:03:04.187Z,1.87
2019-06-10T01:05:09.044Z,1.60
2019-06-10T01:07:11.721Z,2.10
2019-06-10T01:09:14.890Z,1.60
2019-06-10T01:11:21.377Z,1.77
2019-06-10T01:13:20.770Z,1.43
2019-06-10T01:15:23.760Z,1.33
2019-06-10T01:17:27.180Z,1.40
2019-06-10T01:19:31.049Z,1.70
2019-06-10T01:21:33.059Z,1.50
2019-06-10T01:23:36.714Z,1.90
2019-06-10T01:25:41.894Z,1.53
2019-06-10T01:27:42.715Z,1.80
2019-06-10T01:29:45.596Z,1.83
2019-06-10T01:31:51.035Z,1.90
2019-06-10T01:33:51.671Z,1.63
2019-06-10T01:35:54.551Z,1.53
2019-06-10T01:37:57.527Z,1.80
2019-06-10T01:40:00.871Z,1.60
2019-06-10T01:42:21.472Z,1.90
2019-06-10T01:44:37.695Z,1.87
2019-06-10T01:53:51.258Z,1.37
2019-06-10T01:56:03.984Z,1.50
2019-06-10T02:03:48.826Z,2.10
2019-06-10T02:13:48.243Z,1.70
2019-06-10T02:23:52.011Z,1.83
2019-06-10T02:25:57.983Z,1.80
2019-06-10T02:33:52.440Z,2.13
2019-06-10T02:36:06.248Z,1.27
2019-06-10T02:43:53.479Z,1.30
2019-06-10T02:46:04.573Z,1.87
2019-06-10T02:48:20.131Z,1.70
2019-06-10T02:50:31.440Z,2.13
2019-06-10T02:52:38.636Z,1.60
2019-06-10T02:54:48.011Z,1.83
2019-06-10T03:03:54.384Z,1.50
2019-06-10T03:06:08.669Z,2.17
2019-06-10T03:08:22.169Z,2.17
2019-06-10T03:10:36.793Z,1.80
2019-06-10T03:12:46.191Z,2.03
2019-06-10T03:23:49.028Z,2.03
2019-06-10T03:33:49.452Z,2.40
2019-06-10T03:43:48.760Z,1.57
2019-06-10T03:53:48.030Z,1.83
2019-06-10T04:03:52.961Z,1.80
2019-06-10T04:06:06.031Z,1.70
2019-06-10T04:13:49.470Z,2.10
2019-06-10T04:23:52.854Z,1.60
2019-06-10T04:26:05.654Z,1.90
2019-06-10T04:33:49.221Z,1.87
2019-06-10T04:43:49.392Z,1.83
2019-06-10T04:53:48.639Z,1.50
2019-06-10T05:03:52.572Z,1.33
2019-06-10T05:06:04.152Z,1.37
2019-06-10T05:13:48.607Z,1.53
2019-06-10T05:23:48.604Z,1.70
2019-06-10T05:33:50.240Z,1.83
2019-06-10T05:43:49.185Z,2.20
2019-06-10T05:48:22.660Z,2.50
2019-06-10T05:50:26.733Z,2.00
2019-06-10T05:52:29.053Z,2.33
2019-06-10T05:54:33.620Z,2.57
2019-06-10T05:56:35.646Z,1.63
2019-06-10T05:58:36.963Z,2.13
2019-06-10T06:00:39.840Z,2.00
2019-06-10T06:02:43.470Z,2.03
2019-06-10T06:04:47.242Z,2.10
2019-06-10T06:06:50.115Z,1.87
2019-06-10T06:08:53.580Z,2.77
2019-06-10T06:10:56.495Z,2.10
2019-06-10T06:12:59.381Z,2.03
2019-06-10T06:15:02.531Z,2.20
2019-06-10T06:17:05.247Z,1.80
2019-06-10T06:19:08.114Z,2.30
2019-06-10T06:21:22.424Z,2.03
2019-06-10T06:23:13.987Z,2.47
2019-06-10T06:25:16.860Z,2.00
2019-06-10T06:27:22.347Z,1.83
2019-06-10T06:29:22.835Z,2.17
2019-06-10T06:31:26.175Z,1.80
2019-06-10T06:33:29.473Z,2.00
2019-06-10T06:35:33.926Z,1.70
2019-06-10T06:37:36.416Z,1.87
2019-06-10T06:39:38.273Z,2.00
2019-06-10T06:41:42.578Z,1.90
2019-06-10T06:43:45.423Z,2.23
2019-06-10T06:45:46.287Z,1.87
2019-06-10T06:47:49.179Z,2.40
2019-06-10T06:49:53.175Z,1.87
2019-06-10T06:51:58.956Z,1.80
2019-06-10T06:53:58.015Z,1.93
2019-06-10T06:56:03.566Z,2.07
2019-06-10T06:58:03.998Z,1.90
2019-06-10T07:00:34.181Z,1.77
2019-06-10T07:02:12.183Z,1.47
2019-06-10T07:04:13.146Z,1.43
2019-06-10T07:06:15.916Z,2.60
2019-06-10T07:08:18.800Z,1.70
2019-06-10T07:10:22.803Z,2.67
2019-06-10T07:12:25.167Z,2.10
2019-06-10T07:14:28.055Z,2.23
2019-06-10T07:16:34.047Z,1.77
2019-06-10T07:18:39.844Z,1.90
2019-06-10T07:20:39.828Z,2.50
2019-06-10T07:22:42.785Z,1.87
2019-06-10T07:24:47.648Z,1.80
2019-06-10T07:26:53.981Z,1.85
2019-06-10T07:28:50.263Z,2.00
2019-06-10T07:30:55.401Z,2.30
2019-06-10T07:32:56.029Z,2.33
2019-06-10T07:35:02.912Z,2.00
2019-06-10T07:37:04.247Z,1.77
2019-06-10T07:39:07.228Z,1.80
2019-06-10T07:41:12.433Z,2.00
2019-06-10T07:43:13.975Z,1.50
2019-06-10T07:45:16.875Z,1.77
2019-06-10T07:47:19.744Z,1.50
2019-06-10T07:49:23.843Z,1.77
2019-06-10T07:51:25.643Z,1.80
2019-06-10T07:53:32.574Z,1.70
2019-06-10T07:55:34.602Z,2.10
2019-06-10T07:57:37.447Z,1.70
2019-06-10T07:59:39.680Z,1.60
2019-06-10T08:01:51.138Z,1.57
2019-06-10T08:03:46.682Z,1.87
2019-06-10T08:05:49.475Z,1.70
2019-06-10T08:07:54.736Z,1.70
2019-06-10T08:09:55.275Z,1.73
2019-06-10T08:11:58.931Z,1.70
2019-06-10T08:14:04.527Z,1.77
2019-06-10T08:16:04.727Z,1.60
2019-06-10T08:18:08.921Z,1.90
2019-06-10T08:20:13.415Z,2.27
2019-06-10T08:22:29.782Z,1.40
2019-06-10T08:24:17.668Z,2.30
2019-06-10T08:26:22.992Z,1.80
2019-06-10T08:28:23.531Z,1.70
2019-06-10T08:30:27.777Z,2.40
2019-06-10T08:32:29.918Z,2.47
2019-06-10T08:34:34.307Z,2.43
2019-06-10T08:36:39.491Z,2.20
2019-06-10T08:38:43.476Z,2.90
2019-06-10T08:40:45.286Z,2.67
2019-06-10T08:42:48.911Z,2.20
2019-06-10T08:44:53.396Z,2.40
2019-06-10T08:46:55.709Z,1.93
2019-06-10T08:48:58.583Z,1.93
2019-06-10T08:51:03.939Z,2.07
2019-06-10T08:53:13.711Z,2.73
2019-06-10T08:55:07.231Z,2.10
2019-06-10T08:57:12.452Z,2.03
2019-06-10T08:59:13.096Z,1.90
2019-06-10T09:01:16.074Z,1.77
2019-06-10T09:03:18.968Z,2.10
2019-06-10T09:05:23.227Z,2.30
2019-06-10T09:07:25.025Z,2.00
2019-06-10T09:09:27.894Z,2.03
2019-06-10T09:11:32.910Z,2.15
2019-06-10T09:13:35.923Z,2.00
2019-06-10T09:15:39.222Z,1.90
2019-06-10T09:17:44.717Z,2.10
2019-06-10T09:19:47.874Z,2.10
2019-06-10T09:21:51.088Z,1.90
2019-06-10T09:23:59.082Z,2.20
2019-06-10T09:25:57.276Z,1.93
2019-06-10T09:27:57.206Z,2.27
2019-06-10T09:30:02.814Z,2.40
2019-06-10T09:32:03.820Z,2.00
2019-06-10T09:34:07.983Z,2.57
2019-06-10T09:36:12.547Z,2.40
2019-06-10T09:38:14.593Z,2.03
2019-06-10T09:40:17.995Z,2.57
2019-06-10T09:42:23.885Z,2.90
2019-06-10T09:44:24.663Z,2.57
2019-06-10T09:46:27.646Z,2.70
2019-06-10T09:48:33.295Z,2.63
2019-06-10T09:50:48.728Z,2.70
2019-06-10T09:52:50.007Z,3.23
2019-06-10T09:54:50.846Z,2.37
2019-06-10T09:56:54.507Z,2.07
2019-06-10T09:58:55.350Z,1.80
2019-06-10T10:00:58.230Z,2.30
2019-06-10T10:03:00.520Z,2.80
2019-06-10T10:05:04.914Z,2.80
2019-06-10T10:07:07.812Z,2.00
2019-06-10T10:09:11.040Z,2.43
2019-06-10T10:11:14.680Z,1.80
2019-06-10T10:13:17.586Z,2.70
2019-06-10T10:15:29.849Z,2.47
2019-06-10T10:17:24.876Z,2.87
2019-06-10T10:19:28.796Z,1.93
2019-06-10T10:21:32.488Z,2.20
2019-06-10T10:23:50.090Z,2.57
2019-06-10T10:25:39.480Z,2.93
2019-06-10T10:27:46.542Z,2.10
2019-06-10T10:29:48.883Z,1.90
2019-06-10T10:31:50.704Z,2.27
2019-06-10T10:33:52.578Z,2.03
2019-06-10T10:35:54.295Z,2.20
2019-06-10T10:37:57.180Z,2.40
2019-06-10T10:40:02.998Z,1.80
2019-06-10T10:42:03.988Z,2.00
2019-06-10T10:44:06.535Z,2.10
2019-06-10T10:46:09.519Z,1.80
2019-06-10T10:48:14.115Z,1.40
2019-06-10T10:50:15.502Z,1.57
2019-06-10T10:52:19.159Z,1.40
2019-06-10T10:54:32.214Z,1.50
2019-06-10T10:56:25.027Z,1.57
2019-06-10T10:58:28.485Z,1.97
2019-06-10T11:00:50.421Z,1.83
2019-06-10T11:02:52.450Z,2.07
2019-06-10T11:04:56.895Z,1.67
2019-06-10T11:06:58.947Z,2.90
2019-06-10T11:08:59.655Z,2.00
2019-06-10T11:11:05.726Z,1.87
2019-06-10T11:13:07.548Z,1.60
2019-06-10T11:15:13.061Z,2.20
2019-06-10T11:17:13.403Z,2.20
2019-06-10T11:19:16.279Z,1.70
2019-06-10T11:21:19.277Z,2.07
2019-06-10T11:23:22.862Z,1.90
2019-06-10T11:25:25.152Z,1.90
2019-06-10T11:27:30.906Z,2.07
2019-06-10T11:29:33.419Z,2.40
2019-06-10T11:31:36.339Z,1.80
2019-06-10T11:33:39.321Z,1.43
2019-06-10T11:35:42.825Z,2.00
2019-06-10T11:37:45.083Z,1.77
2019-06-10T11:39:48.192Z,1.80
2019-06-10T11:41:52.931Z,2.00
2019-06-10T11:43:57.694Z,2.27
2019-06-10T11:46:03.105Z,1.60
2019-06-10T11:47:59.715Z,2.27
2019-06-10T11:50:04.168Z,2.45
2019-06-10T11:52:07.552Z,2.20
2019-06-10T11:54:12.921Z,2.57
2019-06-10T11:56:14.145Z,2.30
2019-06-10T11:58:16.966Z,1.73
2019-06-10T12:00:19.852Z,1.90
2019-06-10T12:02:22.937Z,2.17
2019-06-10T12:04:25.817Z,1.60
2019-06-10T12:06:28.895Z,1.70
2019-06-10T12:08:32.886Z,2.20
2019-06-10T12:10:34.864Z,2.00
2019-06-10T12:12:37.738Z,1.80
2019-06-10T12:14:43.026Z,2.33
2019-06-10T12:18:46.385Z,1.70
2019-06-10T12:20:49.644Z,1.50
2019-06-10T12:22:56.271Z,2.37
2019-06-10T12:25:21.038Z,1.70
2019-06-10T12:27:01.215Z,1.87
2019-06-10T12:29:05.698Z,1.67
2019-06-10T12:31:07.224Z,1.98
2019-06-10T12:33:08.903Z,2.20
2019-06-10T12:35:13.814Z,1.63
2019-06-10T12:37:16.226Z,1.73
2019-06-10T12:39:19.083Z,1.60
2019-06-10T12:41:23.253Z,1.93
2019-06-10T12:43:24.952Z,1.77
2019-06-10T12:45:28.375Z,1.87
2019-06-10T12:47:33.176Z,1.53
2019-06-10T12:49:34.335Z,1.70
2019-06-10T12:51:38.940Z,1.90
2019-06-10T12:53:43.307Z,1.50
2019-06-10T12:55:47.143Z,1.57
2019-06-10T12:57:47.555Z,1.70
2019-06-10T12:59:52.268Z,2.07
2019-06-10T13:01:53.443Z,1.93
2019-06-10T13:03:57.532Z,1.57
2019-06-10T13:06:02.362Z,1.40
2019-06-10T13:08:05.794Z,1.90
2019-06-10T13:10:07.923Z,1.83
2019-06-10T13:12:12.990Z,2.40
2019-06-10T13:14:13.579Z,2.23
2019-06-10T13:16:16.466Z,2.00
2019-06-10T13:18:19.765Z,2.03
2019-06-10T13:20:22.921Z,2.07
2019-06-10T13:22:25.123Z,2.10
2019-06-10T13:24:28.862Z,1.67
2019-06-10T13:26:35.229Z,2.10
2019-06-10T13:28:35.691Z,1.50
2019-06-10T13:30:38.688Z,1.90
2019-06-10T13:32:43.489Z,2.07
2019-06-10T13:34:45.392Z,1.90
2019-06-10T13:36:48.243Z,1.97
2019-06-10T13:38:53.272Z,1.90
2019-06-10T13:40:54.095Z,1.80
2019-06-10T13:42:59.716Z,1.70
2019-06-10T13:45:04.903Z,2.40
2019-06-10T13:47:08.137Z,2.10
2019-06-10T13:49:10.644Z,2.20
2019-06-10T13:51:13.090Z,2.00
2019-06-10T13:53:13.673Z,2.23
2019-06-10T13:55:17.119Z,1.40
2019-06-10T13:57:20.075Z,2.03
2019-06-10T13:59:23.117Z,2.27
2019-06-10T14:01:26.522Z,2.10
2019-06-10T14:03:29.379Z,1.90
2019-06-10T14:05:34.460Z,2.30
2019-06-10T14:07:36.064Z,2.23
2019-06-10T14:09:39.480Z,2.27
2019-06-10T14:11:43.255Z,2.80
2019-06-10T14:13:46.241Z,2.03
2019-06-10T14:15:49.126Z,1.60
2019-06-10T14:17:52.717Z,2.23
2019-06-10T14:19:55.079Z,2.40
2019-06-10T14:21:58.189Z,2.17
2019-06-10T14:24:02.216Z,2.20
2019-06-10T14:26:06.255Z,2.23
2019-06-10T14:28:10.476Z,2.10
2019-06-10T14:30:15.047Z,2.63
2019-06-10T14:32:14.427Z,1.80
2019-06-10T14:34:18.850Z,2.47
2019-06-10T14:36:22.221Z,2.33
2019-06-10T14:38:24.907Z,2.50
2019-06-10T14:40:27.887Z,2.73
2019-06-10T14:42:32.308Z,2.13
2019-06-10T14:44:33.750Z,2.67
2019-06-10T14:46:36.732Z,2.23
2019-06-10T14:48:42.708Z,2.30
2019-06-10T14:50:44.162Z,2.50
2019-06-10T14:52:47.038Z,2.70
2019-06-10T14:54:53.102Z,2.77
2019-06-10T14:56:57.249Z,2.50
2019-06-10T14:58:56.591Z,2.27
2019-06-10T15:01:00.277Z,2.20
2019-06-10T15:03:05.700Z,2.10
2019-06-10T15:05:07.075Z,2.30
2019-06-10T15:07:09.400Z,2.17
2019-06-10T15:09:13.600Z,2.10
2019-06-10T15:11:15.878Z,2.50
2019-06-10T15:13:18.172Z,3.20
2019-06-10T15:15:23.725Z,3.13
2019-06-10T15:17:24.105Z,2.67
2019-06-10T15:19:29.157Z,2.43
2019-06-10T15:21:32.275Z,2.30
2019-06-10T15:23:33.096Z,2.63
2019-06-10T15:25:49.102Z,2.43
2019-06-10T15:27:40.094Z,2.60
2019-06-10T15:29:43.959Z,2.47
2019-06-10T15:31:46.867Z,2.90
2019-06-10T15:33:52.252Z,2.40
2019-06-10T15:35:53.502Z,2.40
2019-06-10T15:37:55.816Z,2.57
2019-06-10T15:39:58.727Z,2.13
2019-06-10T15:42:02.996Z,2.37
2019-06-10T15:44:06.097Z,2.70
2019-06-10T15:46:09.898Z,2.80
2019-06-10T15:48:15.393Z,2.50
2019-06-10T15:50:16.104Z,2.20
2019-06-10T15:52:20.104Z,2.40
2019-06-10T15:54:25.133Z,2.00
2019-06-10T15:56:36.500Z,2.57
2019-06-10T15:58:27.247Z,2.83
2019-06-10T16:00:30.128Z,2.70
2019-06-10T16:02:33.876Z,3.03
2019-06-10T16:04:36.770Z,2.80
2019-06-10T16:06:42.504Z,2.40
2019-06-10T16:08:43.528Z,2.27
2019-06-10T16:10:46.484Z,2.07
2019-06-10T16:12:49.384Z,2.00
2019-06-10T16:14:52.993Z,2.50
2019-06-10T16:16:55.159Z,3.07
2019-06-10T16:18:58.140Z,2.30
2019-06-10T16:21:04.298Z,2.50
2019-06-10T16:23:04.000Z,2.60
2019-06-10T16:25:06.988Z,2.60
2019-06-10T16:27:12.507Z,2.87
2019-06-10T16:29:13.136Z,2.40
2019-06-10T16:31:16.693Z,2.60
2019-06-10T16:33:19.028Z,3.30
2019-06-10T16:35:23.973Z,3.47
2019-06-10T16:37:27.091Z,2.50
2019-06-10T16:39:32.399Z,2.87
2019-06-10T16:41:32.795Z,2.83
2019-06-10T16:43:35.693Z,2.27
2019-06-10T16:45:39.386Z,3.10
2019-06-10T16:47:43.107Z,2.85
2019-06-10T16:49:45.248Z,2.80
2019-06-10T16:51:48.123Z,3.13
2019-06-10T16:53:52.936Z,2.80
2019-06-10T16:55:55.484Z,2.53
2019-06-10T16:57:59.713Z,2.43
2019-06-10T17:00:06.982Z,3.00
2019-06-10T17:02:04.999Z,3.20
2019-06-10T17:04:09.335Z,3.00
2019-06-10T17:06:13.077Z,2.60
2019-06-10T17:08:15.151Z,3.70
2019-06-10T17:10:18.052Z,3.50
2019-06-10T17:12:24.648Z,2.80
2019-06-10T17:14:27.346Z,2.87
2019-06-10T17:16:29.618Z,2.63
2019-06-10T17:18:33.671Z,2.63
2019-06-10T17:20:34.369Z,2.30
2019-06-10T17:22:37.990Z,2.23
2019-06-10T17:24:42.265Z,3.17
2019-06-10T17:26:43.731Z,3.20
2019-06-10T17:28:46.730Z,2.70
2019-06-10T17:30:49.604Z,2.93
2019-06-10T17:32:53.310Z,3.10
2019-06-10T17:34:55.377Z,3.10
2019-06-10T17:36:59.075Z,2.40
2019-06-10T17:39:03.055Z,2.70
2019-06-10T17:41:06.271Z,2.70
2019-06-10T17:43:09.250Z,2.70
2019-06-10T17:45:12.828Z,2.90
2019-06-10T17:47:16.754Z,2.53
2019-06-10T17:49:22.510Z,2.73
2019-06-10T17:51:25.955Z,1.93
2019-06-10T17:53:26.164Z,2.47
2019-06-10T17:55:29.606Z,2.50
2019-06-10T17:57:35.822Z,2.00
2019-06-10T17:59:35.984Z,2.30
2019-06-10T18:01:39.031Z,2.20
2019-06-10T18:03:43.059Z,2.37
2019-06-10T18:05:44.930Z,2.97
2019-06-10T18:07:47.915Z,2.17
2019-06-10T18:09:52.911Z,1.83
2019-06-10T18:11:53.783Z,2.20
2019-06-10T18:13:56.669Z,2.10
2019-06-10T18:15:59.647Z,2.80
2019-06-10T18:18:03.470Z,2.20
2019-06-10T18:20:05.615Z,1.83
2019-06-10T18:22:08.493Z,2.43
2019-06-10T18:24:12.787Z,2.40
2019-06-10T18:26:14.355Z,1.80
2019-06-10T18:28:17.343Z,1.80
2019-06-10T18:30:22.233Z,2.10
2019-06-10T18:32:23.111Z,1.80
2019-06-10T18:34:25.991Z,2.03
2019-06-10T18:36:32.261Z,2.20
2019-06-10T18:38:35.575Z,1.40
2019-06-10T18:40:35.759Z,2.13
2019-06-10T18:42:39.456Z,2.47
2019-06-10T18:44:43.152Z,2.00
2019-06-10T18:46:46.042Z,1.80
2019-06-10T18:48:49.748Z,1.97
2019-06-10T18:50:53.655Z,1.87
2019-06-10T18:52:58.879Z,2.83
2019-06-10T18:55:03.182Z,2.57
2019-06-10T18:57:04.632Z,1.80
2019-06-10T18:59:16.582Z,1.70
2019-06-10T19:01:12.386Z,1.87
2019-06-10T19:03:16.543Z,1.70
2019-06-10T19:05:16.459Z,1.87
2019-06-10T19:07:22.701Z,1.30
2019-06-10T19:09:24.048Z,2.00
2019-06-10T19:11:26.935Z,1.43
2019-06-10T19:13:29.824Z,1.33
2019-06-10T19:15:33.632Z,1.40
2019-06-10T19:17:38.735Z,2.10
2019-06-10T19:19:38.675Z,1.97
2019-06-10T19:21:43.949Z,1.53
2019-06-10T19:23:44.466Z,2.30
2019-06-10T19:25:48.144Z,1.80
2019-06-10T19:27:52.989Z,1.97
2019-06-10T19:29:55.112Z,1.87
2019-06-10T19:31:57.799Z,1.70
2019-06-10T19:34:03.462Z,2.10
2019-06-10T19:36:03.581Z,1.60
2019-06-10T19:38:06.557Z,2.03
2019-06-10T19:40:09.447Z,1.80
2019-06-10T19:42:13.182Z,1.60
2019-06-10T19:44:16.126Z,1.60
2019-06-10T19:46:19.808Z,1.57
2019-06-10T19:48:22.706Z,1.30
2019-06-10T19:50:25.571Z,1.70
2019-06-10T19:52:28.555Z,1.50
2019-06-10T19:54:32.275Z,1.60
2019-06-10T19:56:37.067Z,1.20
2019-06-10T19:58:40.881Z,1.53
2019-06-10T20:00:50.248Z,1.40
2019-06-10T20:02:46.906Z,2.00
2019-06-10T20:04:48.089Z,1.20
2019-06-10T20:06:53.683Z,1.50
2019-06-10T20:08:53.952Z,1.40
2019-06-10T20:10:57.449Z,1.40
2019-06-10T20:13:01.879Z,1.30
2019-06-10T20:15:06.439Z,1.70
2019-06-10T20:17:09.348Z,1.50
2019-06-10T20:19:12.957Z,1.30
2019-06-10T20:21:15.238Z,1.43
2019-06-10T20:23:18.216Z,1.70
2019-06-10T20:25:22.293Z,1.90
2019-06-10T20:27:24.231Z,1.80
2019-06-10T20:29:27.109Z,2.07
2019-06-10T20:31:32.524Z,2.10
2019-06-10T20:33:36.432Z,2.03
2019-06-10T20:35:37.504Z,1.87
2019-06-10T20:37:39.623Z,1.60
2019-06-10T20:39:43.206Z,2.17
2019-06-10T20:41:50.678Z,2.30
2019-06-10T20:43:55.152Z,2.00
2019-06-10T20:45:58.163Z,1.80
2019-06-10T20:47:57.700Z,1.97
2019-06-10T20:50:02.682Z,2.10
2019-06-10T20:52:11.224Z,2.20
2019-06-10T20:54:07.124Z,2.27
2019-06-10T20:56:12.350Z,2.30
2019-06-10T20:58:12.924Z,2.53
2019-06-10T21:00:22.879Z,2.53
2019-06-10T21:02:22.672Z,2.10
2019-06-10T21:04:25.448Z,2.70
2019-06-10T21:06:28.334Z,2.10
2019-06-10T21:08:33.209Z,2.70
2019-06-10T21:10:35.625Z,2.40
2019-06-10T21:12:40.252Z,2.10
2019-06-10T21:14:45.695Z,2.70
2019-06-10T21:16:48.378Z,2.40
2019-06-10T21:18:55.148Z,2.53
2019-06-10T21:20:56.203Z,2.63
2019-06-10T21:22:57.936Z,2.60
2019-06-10T21:25:02.374Z,2.67
2019-06-10T21:27:04.448Z,2.63
2019-06-10T21:29:07.327Z,2.80
2019-06-10T21:31:10.270Z,2.63
2019-06-10T21:33:13.264Z,2.73
2019-06-10T21:35:17.591Z,2.80
2019-06-10T21:37:22.647Z,1.93
2019-06-10T21:39:24.144Z,2.70
2019-06-10T21:41:27.443Z,2.23
2019-06-10T21:43:32.876Z,2.87
2019-06-10T21:45:33.407Z,2.83
2019-06-10T21:47:36.391Z,2.83
2019-06-10T21:49:39.382Z,3.40
2019-06-10T21:51:47.324Z,2.27
2019-06-10T21:53:48.605Z,3.10
2019-06-10T21:55:54.891Z,2.97
2019-06-10T21:57:55.329Z,2.70
2019-06-10T21:59:59.003Z,2.70
2019-06-10T22:02:02.293Z,3.20
2019-06-10T22:04:04.833Z,3.20
2019-06-10T22:06:07.726Z,2.80
2019-06-10T22:08:12.522Z,2.97
2019-06-10T22:10:13.525Z,2.57
2019-06-10T22:12:16.491Z,3.47
2019-06-10T22:14:19.375Z,3.27
2019-06-10T22:16:22.903Z,3.60
2019-06-10T22:18:25.798Z,3.10
2019-06-10T22:20:28.895Z,2.60
2019-06-10T22:22:32.335Z,3.10
2019-06-10T22:24:34.797Z,2.70
2019-06-10T22:26:38.179Z,3.30
2019-06-10T22:28:43.114Z,3.40
2019-06-10T22:30:45.120Z,2.50
2019-06-10T22:32:47.650Z,3.37
2019-06-10T22:34:53.631Z,2.80
2019-06-10T22:36:55.395Z,3.53
2019-06-10T22:38:59.108Z,3.80
2019-06-10T22:40:59.794Z,3.80
2019-06-10T22:43:03.516Z,3.77
2019-06-10T22:45:06.316Z,3.30
2019-06-10T22:47:09.259Z,3.53
2019-06-10T22:49:13.477Z,3.10
2019-06-10T22:51:15.298Z,3.40
2019-06-10T22:53:18.205Z,3.67
2019-06-10T22:55:21.088Z,2.80
2019-06-10T22:57:24.071Z,3.93
2019-06-10T22:59:27.151Z,3.37
2019-06-10T23:01:37.456Z,3.47
2019-06-10T23:03:34.853Z,3.80
2019-06-10T23:05:37.839Z,2.73
2019-06-10T23:07:40.723Z,4.27
2019-06-10T23:09:45.280Z,3.73
2019-06-10T23:11:48.577Z,3.28
2019-06-10T23:13:53.352Z,3.27
2019-06-10T23:15:56.709Z,3.33
2019-06-10T23:17:59.129Z,3.60
2019-06-10T23:20:03.035Z,3.17
2019-06-10T23:22:03.752Z,3.40
2019-06-10T23:24:08.167Z,2.63
2019-06-10T23:26:13.066Z,3.80
2019-06-10T23:28:14.140Z,3.17
2019-06-10T23:30:17.023Z,2.60
2019-06-10T23:32:22.087Z,3.20
2019-06-10T23:34:23.310Z,3.07
2019-06-10T23:36:26.644Z,3.40
2019-06-10T23:38:29.563Z,3.20
2019-06-10T23:40:32.548Z,3.23
2019-06-10T23:42:37.495Z,3.70
2019-06-10T23:44:41.175Z,3.10
2019-06-10T23:46:45.603Z,3.50
2019-06-10T23:48:51.461Z,3.13
2019-06-10T23:50:55.650Z,2.60
2019-06-10T23:53:01.001Z,3.00
2019-06-10T23:54:59.952Z,2.90
2019-06-10T23:57:05.459Z,3.00
2019-06-10T23:59:07.271Z,2.90
